sensor_id;sensor_type;location;lat;lon;timestamp;pressure;altitude;pressure_sealevel;temperature;humidity
72086;BME280;64750;52.134;5.424;2023-04-02T00:01:16;101426.00;;;7.20;85.90
72086;BME280;64750;52.134;5.424;2023-04-02T00:06:35;101427.09;;;7.13;85.63
72086;BME280;64750;52.134;5.424;2023-04-02T00:11:41;101442.91;;;7.10;85.16
72086;BME280;64750;52.134;5.424;2023-04-02T00:14:24;101457.78;;;7.08;85.38
72086;BME280;64750;52.134;5.424;2023-04-02T00:16:53;101454.16;;;7.12;85.46
72086;BME280;64750;52.134;5.424;2023-04-02T00:19:31;101449.88;;;7.10;85.03
72086;BME280;64750;52.134;5.424;2023-04-02T00:22:03;101452.72;;;7.03;85.16
72086;BME280;64750;52.134;5.424;2023-04-02T00:24:32;101457.78;;;7.08;85.25
72086;BME280;64750;52.134;5.424;2023-04-02T00:26:59;101458.81;;;7.04;85.67
72086;BME280;64750;52.134;5.424;2023-04-02T00:29:26;101463.13;;;7.05;85.65
72086;BME280;64750;52.134;5.424;2023-04-02T00:31:53;101463.00;;;7.08;85.91
72086;BME280;64750;52.134;5.424;2023-04-02T00:34:35;101474.38;;;7.07;85.17
72086;BME280;64750;52.134;5.424;2023-04-02T00:37:02;101478.69;;;7.08;85.21
72086;BME280;64750;52.134;5.424;2023-04-02T00:39:31;101477.00;;;7.07;84.81
72086;BME280;64750;52.134;5.424;2023-04-02T00:41:59;101477.88;;;7.06;85.18
72086;BME280;64750;52.134;5.424;2023-04-02T00:44:36;101489.16;;;7.08;84.95
72086;BME280;64750;52.134;5.424;2023-04-02T00:47:14;101498.91;;;7.03;84.95
72086;BME280;64750;52.134;5.424;2023-04-02T00:49:42;101505.03;;;7.02;85.09
72086;BME280;64750;52.134;5.424;2023-04-02T00:52:12;101505.16;;;6.99;84.89
72086;BME280;64750;52.134;5.424;2023-04-02T00:54:46;101507.16;;;6.90;84.51
72086;BME280;64750;52.134;5.424;2023-04-02T00:57:16;101517.78;;;6.86;84.77
72086;BME280;64750;52.134;5.424;2023-04-02T01:02:41;101529.94;;;6.87;84.67
72086;BME280;64750;52.134;5.424;2023-04-02T01:16:09;101553.50;;;6.85;84.83
72086;BME280;64750;52.134;5.424;2023-04-02T01:18:51;101553.50;;;6.85;84.38
72086;BME280;64750;52.134;5.424;2023-04-02T01:21:38;101557.91;;;6.85;84.46
72086;BME280;64750;52.134;5.424;2023-04-02T01:24:12;101557.78;;;6.88;84.46
72086;BME280;64750;52.134;5.424;2023-04-02T01:26:53;101564.31;;;6.75;84.21
72086;BME280;64750;52.134;5.424;2023-04-02T01:29:34;101574.00;;;6.71;84.21
72086;BME280;64750;52.134;5.424;2023-04-02T01:32:04;101570.69;;;6.66;84.35
72086;BME280;64750;52.134;5.424;2023-04-02T01:34:32;101575.09;;;6.64;84.16
72086;BME280;64750;52.134;5.424;2023-04-02T01:37:08;101581.91;;;6.69;83.74
72086;BME280;64750;52.134;5.424;2023-04-02T01:42:40;101586.19;;;6.72;84.24
72086;BME280;64750;52.134;5.424;2023-04-02T01:45:15;101598.34;;;6.73;84.36
72086;BME280;64750;52.134;5.424;2023-04-02T01:47:42;101599.28;;;6.70;83.67
72086;BME280;64750;52.134;5.424;2023-04-02T01:52:50;101600.25;;;6.68;83.56
72086;BME280;64750;52.134;5.424;2023-04-02T01:55:27;101609.81;;;6.67;82.96
72086;BME280;64750;52.134;5.424;2023-04-02T01:57:55;101622.22;;;6.61;82.93
72086;BME280;64750;52.134;5.424;2023-04-02T02:00:23;101619.75;;;6.56;83.12
72086;BME280;64750;52.134;5.424;2023-04-02T02:02:50;101630.06;;;6.61;83.11
72086;BME280;64750;52.134;5.424;2023-04-02T02:05:19;101638.66;;;6.64;83.29
72086;BME280;64750;52.134;5.424;2023-04-02T02:07:49;101640.41;;;6.64;83.15
72086;BME280;64750;52.134;5.424;2023-04-02T02:10:22;101647.34;;;6.65;83.47
72086;BME280;64750;52.134;5.424;2023-04-02T02:12:49;101645.06;;;6.54;82.96
72086;BME280;64750;52.134;5.424;2023-04-02T02:15:19;101654.66;;;6.53;83.33
72086;BME280;64750;52.134;5.424;2023-04-02T02:17:46;101652.94;;;6.52;83.15
72086;BME280;64750;52.134;5.424;2023-04-02T02:20:13;101667.88;;;6.49;82.96
72086;BME280;64750;52.134;5.424;2023-04-02T02:22:46;101668.75;;;6.48;83.14
72086;BME280;64750;52.134;5.424;2023-04-02T02:25:19;101677.72;;;6.39;82.89
72086;BME280;64750;52.134;5.424;2023-04-02T02:28:02;101669.06;;;6.37;82.75
72086;BME280;64750;52.134;5.424;2023-04-02T02:30:35;101674.38;;;6.34;82.61
72086;BME280;64750;52.134;5.424;2023-04-02T02:33:20;101684.81;;;6.34;82.41
72086;BME280;64750;52.134;5.424;2023-04-02T02:35:52;101691.22;;;6.23;82.24
72086;BME280;64750;52.134;5.424;2023-04-02T02:41:05;101693.00;;;6.21;82.20
72086;BME280;64750;52.134;5.424;2023-04-02T02:43:33;101701.75;;;6.20;82.21
72086;BME280;64750;52.134;5.424;2023-04-02T02:46:03;101698.31;;;6.18;82.47
72086;BME280;64750;52.134;5.424;2023-04-02T02:48:36;101714.03;;;6.17;82.75
72086;BME280;64750;52.134;5.424;2023-04-02T02:51:08;101712.34;;;6.14;82.65
72086;BME280;64750;52.134;5.424;2023-04-02T02:53:53;101722.81;;;6.14;82.75
72086;BME280;64750;52.134;5.424;2023-04-02T02:56:22;101722.22;;;6.03;82.78
72086;BME280;64750;52.134;5.424;2023-04-02T02:58:51;101732.72;;;6.01;82.83
72086;BME280;64750;52.134;5.424;2023-04-02T03:01:18;101744.16;;;5.94;82.58
72086;BME280;64750;52.134;5.424;2023-04-02T03:03:46;101745.88;;;5.95;83.13
72086;BME280;64750;52.134;5.424;2023-04-02T03:06:15;101750.16;;;5.98;82.97
72086;BME280;64750;52.134;5.424;2023-04-02T03:09:13;101750.41;;;5.88;82.47
72086;BME280;64750;52.134;5.424;2023-04-02T03:11:52;101761.91;;;5.81;82.94
72086;BME280;64750;52.134;5.424;2023-04-02T03:14:27;101766.13;;;5.85;83.17
72086;BME280;64750;52.134;5.424;2023-04-02T03:17:00;101774.69;;;5.90;83.12
72086;BME280;64750;52.134;5.424;2023-04-02T03:22:12;101781.72;;;5.88;83.03
72086;BME280;64750;52.134;5.424;2023-04-02T03:24:57;101774.31;;;5.71;82.86
72086;BME280;64750;52.134;5.424;2023-04-02T03:27:31;101789.16;;;5.68;83.09
72086;BME280;64750;52.134;5.424;2023-04-02T03:31:02;101800.31;;;5.74;82.99
72086;BME280;64750;52.134;5.424;2023-04-02T03:33:15;101797.69;;;5.76;82.65
72086;BME280;64750;52.134;5.424;2023-04-02T03:36:11;101810.81;;;5.71;82.62
72086;BME280;64750;52.134;5.424;2023-04-02T03:38:43;101820.31;;;5.74;82.01
72086;BME280;64750;52.134;5.424;2023-04-02T03:41:28;101827.31;;;5.73;82.36
72086;BME280;64750;52.134;5.424;2023-04-02T03:43:59;101826.41;;;5.74;81.93
72086;BME280;64750;52.134;5.424;2023-04-02T03:46:55;101833.38;;;5.74;81.68
72086;BME280;64750;52.134;5.424;2023-04-02T03:49:39;101843.69;;;5.79;81.56
72086;BME280;64750;52.134;5.424;2023-04-02T03:52:13;101842.13;;;5.71;81.55
72086;BME280;64750;52.134;5.424;2023-04-02T03:54:40;101857.72;;;5.74;81.52
72086;BME280;64750;52.134;5.424;2023-04-02T03:57:34;101855.06;;;5.76;81.32
72086;BME280;64750;52.134;5.424;2023-04-02T04:05:26;101866.56;;;5.67;81.02
72086;BME280;64750;52.134;5.424;2023-04-02T04:07:58;101875.13;;;5.72;81.05
72086;BME280;64750;52.134;5.424;2023-04-02T04:10:27;101874.16;;;5.78;81.04
72086;BME280;64750;52.134;5.424;2023-04-02T04:13:00;101883.00;;;5.71;80.27
72086;BME280;64750;52.134;5.424;2023-04-02T04:15:45;101891.72;;;5.70;80.53
72086;BME280;64750;52.134;5.424;2023-04-02T04:18:33;101894.34;;;5.70;80.43
72086;BME280;64750;52.134;5.424;2023-04-02T04:21:14;101910.25;;;5.57;79.77
72086;BME280;64750;52.134;5.424;2023-04-02T04:23:46;101911.97;;;5.58;79.69
72086;BME280;64750;52.134;5.424;2023-04-02T04:26:32;101913.78;;;5.55;79.16
72086;BME280;64750;52.134;5.424;2023-04-02T04:29:04;101912.13;;;5.51;79.71
72086;BME280;64750;52.134;5.424;2023-04-02T04:31:45;101921.63;;;5.53;79.60
72086;BME280;64750;52.134;5.424;2023-04-02T04:34:25;101942.78;;;5.41;78.63
72086;BME280;64750;52.134;5.424;2023-04-02T04:36:58;101944.50;;;5.40;79.12
72086;BME280;64750;52.134;5.424;2023-04-02T04:42:30;101955.44;;;5.16;77.72
72086;BME280;64750;52.134;5.424;2023-04-02T04:50:29;101965.53;;;5.33;78.62
72086;BME280;64750;52.134;5.424;2023-04-02T04:53:05;101979.41;;;5.35;78.61
72086;BME280;64750;52.134;5.424;2023-04-02T04:55:41;101980.25;;;5.35;78.84
72086;BME280;64750;52.134;5.424;2023-04-02T05:01:13;101989.81;;;5.35;78.68
72086;BME280;64750;52.134;5.424;2023-04-02T05:06:42;102008.47;;;5.13;76.86
72086;BME280;64750;52.134;5.424;2023-04-02T05:09:19;102015.53;;;5.08;76.80
72086;BME280;64750;52.134;5.424;2023-04-02T05:11:58;102023.44;;;5.02;75.78
72086;BME280;64750;52.134;5.424;2023-04-02T05:14:34;102027.81;;;5.01;75.92
72086;BME280;64750;52.134;5.424;2023-04-02T05:19:56;102044.56;;;4.86;75.35
72086;BME280;64750;52.134;5.424;2023-04-02T05:25:12;102052.53;;;4.75;75.39
72086;BME280;64750;52.134;5.424;2023-04-02T05:28:11;102060.34;;;4.77;75.58
72086;BME280;64750;52.134;5.424;2023-04-02T05:30:46;102062.91;;;4.79;75.62
72086;BME280;64750;52.134;5.424;2023-04-02T05:33:25;102073.31;;;4.80;75.82
72086;BME280;64750;52.134;5.424;2023-04-02T05:36:00;102081.19;;;4.77;75.45
72086;BME280;64750;52.134;5.424;2023-04-02T05:38:31;102084.75;;;4.70;75.48
72086;BME280;64750;52.134;5.424;2023-04-02T05:43:30;102099.63;;;4.63;75.05
72086;BME280;64750;52.134;5.424;2023-04-02T05:46:01;102102.25;;;4.60;74.95
72086;BME280;64750;52.134;5.424;2023-04-02T05:48:38;102104.97;;;4.52;74.84
72086;BME280;64750;52.134;5.424;2023-04-02T05:51:10;102112.78;;;4.52;74.93
72086;BME280;64750;52.134;5.424;2023-04-02T05:53:46;102121.50;;;4.51;74.73
72086;BME280;64750;52.134;5.424;2023-04-02T05:56:21;102130.22;;;4.49;74.64
72086;BME280;64750;52.134;5.424;2023-04-02T05:58:53;102135.53;;;4.41;74.43
72086;BME280;64750;52.134;5.424;2023-04-02T06:01:27;102139.91;;;4.37;74.30
72086;BME280;64750;52.134;5.424;2023-04-02T06:06:50;102159.97;;;4.27;74.79
72086;BME280;64750;52.134;5.424;2023-04-02T06:09:35;102166.03;;;4.28;74.04
72086;BME280;64750;52.134;5.424;2023-04-02T06:12:18;102167.94;;;4.14;74.27
72086;BME280;64750;52.134;5.424;2023-04-02T06:14:48;102176.63;;;4.14;74.44
72086;BME280;64750;52.134;5.424;2023-04-02T06:17:17;102190.44;;;4.18;74.66
72086;BME280;64750;52.134;5.424;2023-04-02T06:19:44;102191.47;;;4.06;74.50
72086;BME280;64750;52.134;5.424;2023-04-02T06:25:05;102206.25;;;4.01;74.27
72086;BME280;64750;52.134;5.424;2023-04-02T06:27:34;102217.44;;;4.07;75.28
72086;BME280;64750;52.134;5.424;2023-04-02T06:30:04;102216.53;;;4.13;75.23
72086;BME280;64750;52.134;5.424;2023-04-02T06:32:32;102223.56;;;4.05;75.30
72086;BME280;64750;52.134;5.424;2023-04-02T06:34:58;102227.94;;;4.03;74.95
72086;BME280;64750;52.134;5.424;2023-04-02T06:37:30;102224.34;;;4.10;74.91
72086;BME280;64750;52.134;5.424;2023-04-02T06:39:58;102234.88;;;4.01;75.22
72086;BME280;64750;52.134;5.424;2023-04-02T06:42:34;102235.66;;;4.07;75.43
72086;BME280;64750;52.134;5.424;2023-04-02T06:45:03;102246.09;;;4.09;75.13
72086;BME280;64750;52.134;5.424;2023-04-02T06:47:39;102245.25;;;4.05;75.86
72086;BME280;64750;52.134;5.424;2023-04-02T06:50:30;102251.25;;;4.12;75.65
72086;BME280;64750;52.134;5.424;2023-04-02T06:53:01;102245.13;;;4.15;75.84
72086;BME280;64750;52.134;5.424;2023-04-02T06:55:50;102255.66;;;4.04;75.57
72086;BME280;64750;52.134;5.424;2023-04-02T06:58:18;102262.56;;;4.05;75.93
72086;BME280;64750;52.134;5.424;2023-04-02T07:00:47;102265.13;;;4.11;75.80
72086;BME280;64750;52.134;5.424;2023-04-02T07:03:25;102273.78;;;4.13;75.62
72086;BME280;64750;52.134;5.424;2023-04-02T07:05:53;102279.91;;;4.06;75.51
72086;BME280;64750;52.134;5.424;2023-04-02T07:08:20;102292.91;;;4.09;76.12
72086;BME280;64750;52.134;5.424;2023-04-02T07:10:46;102297.22;;;4.13;75.89
72086;BME280;64750;52.134;5.424;2023-04-02T07:13:18;102309.34;;;4.14;75.50
72086;BME280;64750;52.134;5.424;2023-04-02T07:15:46;102303.31;;;4.07;76.01
72086;BME280;64750;52.134;5.424;2023-04-02T07:18:22;102307.63;;;4.13;75.74
72086;BME280;64750;52.134;5.424;2023-04-02T07:20:49;102311.97;;;4.09;75.94
72086;BME280;64750;52.134;5.424;2023-04-02T07:23:17;102324.06;;;4.14;76.40
72086;BME280;64750;52.134;5.424;2023-04-02T07:25:44;102321.59;;;4.00;76.59
72086;BME280;64750;52.134;5.424;2023-04-02T07:28:11;102321.53;;;4.06;76.62
72086;BME280;64750;52.134;5.424;2023-04-02T07:30:38;102337.25;;;3.93;76.89
72086;BME280;64750;52.134;5.424;2023-04-02T07:33:05;102345.13;;;3.86;76.60
72086;BME280;64750;52.134;5.424;2023-04-02T07:35:32;102352.94;;;3.87;76.61
72086;BME280;64750;52.134;5.424;2023-04-02T07:38:00;102359.00;;;3.88;76.75
72086;BME280;64750;52.134;5.424;2023-04-02T07:40:26;102361.53;;;3.94;77.02
72086;BME280;64750;52.134;5.424;2023-04-02T07:42:53;102363.25;;;3.93;76.66
72086;BME280;64750;52.134;5.424;2023-04-02T07:45:19;102367.63;;;3.93;77.01
72086;BME280;64750;52.134;5.424;2023-04-02T07:47:46;102367.53;;;4.02;76.78
72086;BME280;64750;52.134;5.424;2023-04-02T07:50:12;102365.78;;;4.09;76.59
72086;BME280;64750;52.134;5.424;2023-04-02T07:52:40;102366.72;;;3.99;76.88
72086;BME280;64750;52.134;5.424;2023-04-02T07:55:12;102376.22;;;4.03;77.01
72086;BME280;64750;52.134;5.424;2023-04-02T07:57:52;102382.28;;;4.02;76.87
72086;BME280;64750;52.134;5.424;2023-04-02T08:00:19;102381.38;;;4.07;76.90
72086;BME280;64750;52.134;5.424;2023-04-02T08:02:46;102379.69;;;4.02;76.57
72086;BME280;64750;52.134;5.424;2023-04-02T08:05:12;102388.31;;;4.07;77.17
72086;BME280;64750;52.134;5.424;2023-04-02T08:07:39;102387.41;;;4.11;77.33
72086;BME280;64750;52.134;5.424;2023-04-02T08:10:08;102392.59;;;4.13;76.51
72086;BME280;64750;52.134;5.424;2023-04-02T08:12:35;102401.38;;;4.04;76.75
72086;BME280;64750;52.134;5.424;2023-04-02T08:15:02;102402.16;;;4.12;76.93
72086;BME280;64750;52.134;5.424;2023-04-02T08:17:31;102406.50;;;4.10;76.52
72086;BME280;64750;52.134;5.424;2023-04-02T08:19:59;102408.25;;;4.09;76.33
72086;BME280;64750;52.134;5.424;2023-04-02T08:22:27;102416.09;;;4.05;76.68
72086;BME280;64750;52.134;5.424;2023-04-02T08:24:54;102416.94;;;4.07;76.63
72086;BME280;64750;52.134;5.424;2023-04-02T08:27:22;102422.19;;;4.04;76.19
72086;BME280;64750;52.134;5.424;2023-04-02T08:29:49;102423.06;;;4.00;76.26
72086;BME280;64750;52.134;5.424;2023-04-02T08:32:17;102432.69;;;3.85;76.28
72086;BME280;64750;52.134;5.424;2023-04-02T08:34:43;102442.28;;;3.78;75.62
72086;BME280;64750;52.134;5.424;2023-04-02T08:37:11;102448.38;;;3.71;75.86
72086;BME280;64750;52.134;5.424;2023-04-02T08:39:38;102458.75;;;3.82;76.67
72086;BME280;64750;52.134;5.424;2023-04-02T08:42:17;102458.69;;;3.88;75.70
72086;BME280;64750;52.134;5.424;2023-04-02T08:47:17;102464.72;;;3.93;75.99
72086;BME280;64750;52.134;5.424;2023-04-02T08:49:57;102476.06;;;3.86;75.73
72086;BME280;64750;52.134;5.424;2023-04-02T08:52:30;102478.66;;;3.85;75.35
72086;BME280;64750;52.134;5.424;2023-04-02T08:54:57;102481.22;;;3.92;75.78
72086;BME280;64750;52.134;5.424;2023-04-02T09:00:06;102487.25;;;3.99;76.10
72086;BME280;64750;52.134;5.424;2023-04-02T09:02:41;102499.41;;;3.99;75.58
72086;BME280;64750;52.134;5.424;2023-04-02T09:05:24;102499.34;;;4.08;75.70
72086;BME280;64750;52.134;5.424;2023-04-02T09:07:52;102504.59;;;3.97;75.49
72086;BME280;64750;52.134;5.424;2023-04-02T09:10:23;102508.91;;;4.03;76.23
72086;BME280;64750;52.134;5.424;2023-04-02T09:12:51;102507.16;;;4.05;75.14
72086;BME280;64750;52.134;5.424;2023-04-02T09:15:31;102517.63;;;3.99;75.41
72086;BME280;64750;52.134;5.424;2023-04-02T09:18:10;102514.97;;;4.02;75.05
72086;BME280;64750;52.134;5.424;2023-04-02T09:20:38;102519.28;;;4.06;75.26
72086;BME280;64750;52.134;5.424;2023-04-02T09:23:11;102527.09;;;4.09;74.49
72086;BME280;64750;52.134;5.424;2023-04-02T09:25:47;102523.59;;;4.13;74.54
72086;BME280;64750;52.134;5.424;2023-04-02T09:28:29;102540.06;;;4.14;74.72
72086;BME280;64750;52.134;5.424;2023-04-02T09:31:19;102541.75;;;4.22;74.67
72086;BME280;64750;52.134;5.424;2023-04-02T09:33:49;102543.44;;;4.30;74.54
72086;BME280;64750;52.134;5.424;2023-04-02T09:36:32;102547.78;;;4.32;73.93
72086;BME280;64750;52.134;5.424;2023-04-02T09:39:23;102552.94;;;4.37;74.04
72086;BME280;64750;52.134;5.424;2023-04-02T09:41:51;102559.03;;;4.33;73.74
72086;BME280;64750;52.134;5.424;2023-04-02T09:44:31;102563.41;;;4.27;73.36
72086;BME280;64750;52.134;5.424;2023-04-02T09:49:31;102554.69;;;4.35;73.81
72086;BME280;64750;52.134;5.424;2023-04-02T09:52:07;102557.28;;;4.38;73.80
72086;BME280;64750;52.134;5.424;2023-04-02T09:54:34;102553.75;;;4.45;73.73
72086;BME280;64750;52.134;5.424;2023-04-02T09:57:22;102556.34;;;4.47;73.72
72086;BME280;64750;52.134;5.424;2023-04-02T10:00:24;102560.69;;;4.46;73.73
72086;BME280;64750;52.134;5.424;2023-04-02T10:03:10;102565.00;;;4.52;73.21
72086;BME280;64750;52.134;5.424;2023-04-02T10:05:43;102576.22;;;4.62;73.58
72086;BME280;64750;52.134;5.424;2023-04-02T10:08:23;102569.13;;;4.82;74.00
72086;BME280;64750;52.134;5.424;2023-04-02T10:10:53;102573.38;;;4.89;72.70
72086;BME280;64750;52.134;5.424;2023-04-02T10:16:08;102583.59;;;5.13;73.02
72086;BME280;64750;52.134;5.424;2023-04-02T10:21:12;102584.28;;;5.32;73.01
72086;BME280;64750;52.134;5.424;2023-04-02T10:23:40;102584.22;;;5.41;72.59
72086;BME280;64750;52.134;5.424;2023-04-02T10:31:46;102572.66;;;5.64;70.54
72086;BME280;64750;52.134;5.424;2023-04-02T10:34:43;102583.88;;;5.69;70.49
72086;BME280;64750;52.134;5.424;2023-04-02T10:39:55;102585.34;;;5.93;71.19
72086;BME280;64750;52.134;5.424;2023-04-02T10:42:40;102587.81;;;6.07;70.54
72086;BME280;64750;52.134;5.424;2023-04-02T10:48:06;102597.09;;;6.30;66.71
72086;BME280;64750;52.134;5.424;2023-04-02T10:50:52;102595.22;;;6.38;68.56
72086;BME280;64750;52.134;5.424;2023-04-02T10:53:31;102592.56;;;6.43;68.05
72086;BME280;64750;52.134;5.424;2023-04-02T10:56:06;102582.81;;;6.52;68.74
72086;BME280;64750;52.134;5.424;2023-04-02T10:58:39;102596.63;;;6.61;65.60
72086;BME280;64750;52.134;5.424;2023-04-02T11:01:14;102600.09;;;6.63;66.46
72086;BME280;64750;52.134;5.424;2023-04-02T11:03:58;102601.78;;;6.67;67.25
72086;BME280;64750;52.134;5.424;2023-04-02T11:06:32;102600.91;;;6.66;66.56
72086;BME280;64750;52.134;5.424;2023-04-02T11:09:04;102612.16;;;6.70;67.33
72086;BME280;64750;52.134;5.424;2023-04-02T11:11:40;102608.50;;;6.82;64.68
72086;BME280;64750;52.134;5.424;2023-04-02T11:14:16;102616.22;;;6.89;64.01
72086;BME280;64750;52.134;5.424;2023-04-02T11:16:44;102613.50;;;6.96;64.91
72086;BME280;64750;52.134;5.424;2023-04-02T11:29:48;102613.88;;;7.24;66.43
72086;BME280;64750;52.134;5.424;2023-04-02T11:37:42;102638.84;;;7.44;65.33
72086;BME280;64750;52.134;5.424;2023-04-02T11:42:38;102635.31;;;7.46;63.28
72086;BME280;64750;52.134;5.424;2023-04-02T11:50:43;102645.59;;;7.55;65.22
72086;BME280;64750;52.134;5.424;2023-04-02T11:58:38;102641.94;;;7.66;64.01
72086;BME280;64750;52.134;5.424;2023-04-02T12:02:12;102647.88;;;7.74;64.56
72086;BME280;64750;52.134;5.424;2023-04-02T12:09:43;102652.78;;;7.89;62.73
72086;BME280;64750;52.134;5.424;2023-04-02T12:12:26;102659.66;;;7.97;63.79
72086;BME280;64750;52.134;5.424;2023-04-02T12:14:55;102656.06;;;8.02;63.03
72086;BME280;64750;52.134;5.424;2023-04-02T12:17:27;102652.47;;;8.07;61.76
72086;BME280;64750;52.134;5.424;2023-04-02T12:19:58;102663.75;;;8.10;60.99
72086;BME280;64750;52.134;5.424;2023-04-02T12:22:28;102668.03;;;8.14;62.66
72086;BME280;64750;52.134;5.424;2023-04-02T12:25:21;102672.38;;;8.15;63.24
72086;BME280;64750;52.134;5.424;2023-04-02T12:27:45;102680.16;;;8.18;63.36
72086;BME280;64750;52.134;5.424;2023-04-02T12:30:20;102674.03;;;8.19;63.94
72086;BME280;64750;52.134;5.424;2023-04-02T12:32:48;102666.94;;;8.25;62.53
72086;BME280;64750;52.134;5.424;2023-04-02T12:35:27;102674.84;;;8.23;63.34
72086;BME280;64750;52.134;5.424;2023-04-02T12:37:54;102671.34;;;8.23;64.18
72086;BME280;64750;52.134;5.424;2023-04-02T12:40:23;102678.22;;;8.28;62.31
72086;BME280;64750;52.134;5.424;2023-04-02T12:42:49;102671.16;;;8.32;62.04
72086;BME280;64750;52.134;5.424;2023-04-02T12:45:27;102682.47;;;8.34;62.29
72086;BME280;64750;52.134;5.424;2023-04-02T12:47:56;102685.16;;;8.31;62.25
72086;BME280;64750;52.134;5.424;2023-04-02T12:50:23;102681.63;;;8.32;62.16
72086;BME280;64750;52.134;5.424;2023-04-02T12:52:51;102682.41;;;8.37;62.38
72086;BME280;64750;52.134;5.424;2023-04-02T12:55:22;102691.91;;;8.43;60.98
72086;BME280;64750;52.134;5.424;2023-04-02T12:57:56;102683.19;;;8.42;60.14
72086;BME280;64750;52.134;5.424;2023-04-02T13:05:40;102690.91;;;8.48;61.16
72086;BME280;64750;52.134;5.424;2023-04-02T13:10:59;102685.81;;;8.42;59.94
72086;BME280;64750;52.134;5.424;2023-04-02T13:13:45;102695.34;;;8.45;60.92
72086;BME280;64750;52.134;5.424;2023-04-02T13:18:41;102703.13;;;8.49;59.08
72086;BME280;64750;52.134;5.424;2023-04-02T13:21:25;102693.50;;;8.51;59.97
72086;BME280;64750;52.134;5.424;2023-04-02T13:23:54;102695.91;;;8.61;60.31
72086;BME280;64750;52.134;5.424;2023-04-02T13:26:23;102696.88;;;8.57;59.61
72086;BME280;64750;52.134;5.424;2023-04-02T13:31:26;102697.56;;;8.65;60.49
72086;BME280;64750;52.134;5.424;2023-04-02T13:33:53;102701.72;;;8.74;59.59
72086;BME280;64750;52.134;5.424;2023-04-02T13:36:19;102688.53;;;8.77;58.24
72086;BME280;64750;52.134;5.424;2023-04-02T13:38:46;102705.22;;;8.74;57.09
72086;BME280;64750;52.134;5.424;2023-04-02T13:41:21;102706.06;;;8.76;60.61
72086;BME280;64750;52.134;5.424;2023-04-02T13:43:49;102706.75;;;8.84;60.36
72086;BME280;64750;52.134;5.424;2023-04-02T13:46:26;102712.00;;;8.84;58.77
72086;BME280;64750;52.134;5.424;2023-04-02T13:48:54;102709.47;;;8.80;59.35
72086;BME280;64750;52.134;5.424;2023-04-02T13:51:23;102709.38;;;8.84;59.57
72086;BME280;64750;52.134;5.424;2023-04-02T13:53:54;102709.34;;;8.86;59.19
72086;BME280;64750;52.134;5.424;2023-04-02T13:56:22;102711.03;;;8.89;60.17
72086;BME280;64750;52.134;5.424;2023-04-02T13:58:50;102714.44;;;8.92;60.39
72086;BME280;64750;52.134;5.424;2023-04-02T14:01:18;102716.97;;;8.95;60.88
72086;BME280;64750;52.134;5.424;2023-04-02T14:03:46;102717.91;;;8.93;59.94
72086;BME280;64750;52.134;5.424;2023-04-02T14:06:41;102719.66;;;8.94;58.41
72086;BME280;64750;52.134;5.424;2023-04-02T14:12:30;102724.72;;;9.01;58.94
72086;BME280;64750;52.134;5.424;2023-04-02T14:20:40;102735.81;;;9.13;58.92
72086;BME280;64750;52.134;5.424;2023-04-02T14:26:27;102732.25;;;9.15;58.57
72086;BME280;64750;52.134;5.424;2023-04-02T14:29:06;102735.97;;;9.07;58.64
72086;BME280;64750;52.134;5.424;2023-04-02T14:32:05;102736.00;;;9.03;59.23
72086;BME280;64750;52.134;5.424;2023-04-02T14:34:41;102745.63;;;9.05;59.52
72086;BME280;64750;52.134;5.424;2023-04-02T14:37:31;102741.25;;;9.05;58.56
72086;BME280;64750;52.134;5.424;2023-04-02T14:40:18;102750.91;;;9.03;59.04
72086;BME280;64750;52.134;5.424;2023-04-02T14:45:50;102748.19;;;9.06;57.55
72086;BME280;64750;52.134;5.424;2023-04-02T14:48:39;102753.31;;;9.12;58.46
72086;BME280;64750;52.134;5.424;2023-04-02T14:51:32;102755.03;;;9.13;57.30
72086;BME280;64750;52.134;5.424;2023-04-02T14:56:37;102762.94;;;9.12;58.37
72086;BME280;64750;52.134;5.424;2023-04-02T15:02:00;102757.75;;;9.09;56.71
72086;BME280;64750;52.134;5.424;2023-04-02T15:04:37;102756.00;;;9.09;57.76
72086;BME280;64750;52.134;5.424;2023-04-02T15:07:21;102755.03;;;9.13;57.93
72086;BME280;64750;52.134;5.424;2023-04-02T15:09:58;102763.69;;;9.17;56.89
72086;BME280;64750;52.134;5.424;2023-04-02T15:12:29;102766.47;;;9.11;55.14
72086;BME280;64750;52.134;5.424;2023-04-02T15:18:14;102782.16;;;9.12;56.34
72086;BME280;64750;52.134;5.424;2023-04-02T15:21:02;102776.97;;;9.11;56.19
72086;BME280;64750;52.134;5.424;2023-04-02T15:26:18;102778.69;;;9.12;55.53
72086;BME280;64750;52.134;5.424;2023-04-02T15:31:26;102775.97;;;9.15;56.81
72086;BME280;64750;52.134;5.424;2023-04-02T15:34:08;102778.56;;;9.18;56.68
72086;BME280;64750;52.134;5.424;2023-04-02T15:36:59;102779.41;;;9.18;56.75
72086;BME280;64750;52.134;5.424;2023-04-02T15:39:37;102778.50;;;9.19;56.19
72086;BME280;64750;52.134;5.424;2023-04-02T15:44:43;102789.97;;;9.15;56.38
72086;BME280;64750;52.134;5.424;2023-04-02T15:47:26;102790.06;;;9.11;55.62
72086;BME280;64750;52.134;5.424;2023-04-02T15:50:24;102802.28;;;9.12;56.55
72086;BME280;64750;52.134;5.424;2023-04-02T15:53:18;102787.44;;;9.11;56.30
72086;BME280;64750;52.134;5.424;2023-04-02T15:55:56;102791.81;;;9.12;55.75
72086;BME280;64750;52.134;5.424;2023-04-02T15:58:35;102796.16;;;9.11;55.55
72086;BME280;64750;52.134;5.424;2023-04-02T16:07:21;102796.97;;;9.15;56.64
72086;BME280;64750;52.134;5.424;2023-04-02T16:10:05;102786.47;;;9.15;57.36
72086;BME280;64750;52.134;5.424;2023-04-02T16:12:38;102787.34;;;9.15;57.22
72086;BME280;64750;52.134;5.424;2023-04-02T16:15:21;102803.97;;;9.14;57.18
72086;BME280;64750;52.134;5.424;2023-04-02T16:17:53;102805.78;;;9.12;56.97
72086;BME280;64750;52.134;5.424;2023-04-02T16:20:28;102818.84;;;9.14;57.08
72086;BME280;64750;52.134;5.424;2023-04-02T16:23:11;102818.00;;;9.13;57.46
72086;BME280;64750;52.134;5.424;2023-04-02T16:28:41;102816.25;;;9.12;56.60
72086;BME280;64750;52.134;5.424;2023-04-02T16:36:56;102831.25;;;9.07;56.23
72086;BME280;64750;52.134;5.424;2023-04-02T16:42:27;102834.84;;;9.03;56.95